createdAt,value
2022-10-09T00:00:37.267Z,21.38
2022-10-09T00:03:03.586Z,21.38
2022-10-09T00:05:29.929Z,21.38
2022-10-09T00:07:56.557Z,21.37
2022-10-09T00:10:22.942Z,21.36
2022-10-09T00:12:49.570Z,21.36
2022-10-09T00:15:16.362Z,21.37
2022-10-09T00:17:42.680Z,21.36
2022-10-09T00:20:09.093Z,21.37
2022-10-09T00:22:35.408Z,21.36
2022-10-09T00:25:01.719Z,21.34
2022-10-09T00:27:28.025Z,21.34
2022-10-09T00:29:54.348Z,21.34
2022-10-09T00:32:20.659Z,21.33
2022-10-09T00:34:46.981Z,21.32
2022-10-09T00:37:13.302Z,21.32
2022-10-09T00:39:39.614Z,21.32
2022-10-09T00:42:05.922Z,21.31
2022-10-09T00:44:57.231Z,21.33
2022-10-09T00:47:28.742Z,21.31
2022-10-09T00:49:56.903Z,21.31
2022-10-09T00:52:23.319Z,21.31
2022-10-09T00:54:49.659Z,21.30
2022-10-09T00:57:15.999Z,21.30
2022-10-09T00:59:42.326Z,21.29
2022-10-09T01:02:08.709Z,21.29
2022-10-09T01:04:35.117Z,21.28
2022-10-09T01:07:04.522Z,21.28
2022-10-09T01:09:39.298Z,21.27
2022-10-09T01:12:11.880Z,21.26
2022-10-09T01:15:01.484Z,21.27
2022-10-09T01:17:31.052Z,21.33
2022-10-09T01:20:16.128Z,21.34
2022-10-09T01:22:47.915Z,21.36
2022-10-09T01:25:15.397Z,21.37
2022-10-09T01:27:42.178Z,21.36
2022-10-09T01:30:08.909Z,21.34
2022-10-09T01:32:36.589Z,21.34
2022-10-09T01:35:03.050Z,21.33
2022-10-09T01:37:29.349Z,21.32
2022-10-09T01:39:55.666Z,21.32
2022-10-09T01:42:22.331Z,21.32
2022-10-09T01:44:48.644Z,21.30
2022-10-09T01:47:15.874Z,21.30
2022-10-09T01:49:45.439Z,21.32
2022-10-09T01:52:30.597Z,21.30
2022-10-09T01:55:04.673Z,21.30
2022-10-09T01:57:38.977Z,21.30
2022-10-09T02:00:07.018Z,21.29
2022-10-09T02:02:38.052Z,21.29
2022-10-09T02:05:04.402Z,21.28
2022-10-09T02:07:30.704Z,21.29
2022-10-09T02:09:57.023Z,21.29
2022-10-09T02:12:23.357Z,21.29
2022-10-09T02:14:50.001Z,21.28
2022-10-09T02:17:17.579Z,21.28
2022-10-09T02:19:44.397Z,21.28
2022-10-09T02:22:20.355Z,21.26
2022-10-09T02:24:46.684Z,21.26
2022-10-09T02:27:13.027Z,21.26
2022-10-09T02:29:42.713Z,21.28
2022-10-09T02:32:09.315Z,21.27
2022-10-09T02:34:35.626Z,21.28
2022-10-09T02:37:01.929Z,21.28
2022-10-09T02:39:28.233Z,21.29
2022-10-09T02:41:54.529Z,21.30
2022-10-09T02:44:20.838Z,21.31
2022-10-09T02:46:47.219Z,21.34
2022-10-09T02:49:13.532Z,21.38
2022-10-09T02:51:39.867Z,21.39
2022-10-09T02:54:06.178Z,21.41
2022-10-09T02:56:36.641Z,21.41
2022-10-09T02:59:05.032Z,21.42
2022-10-09T03:01:31.409Z,21.43
2022-10-09T03:03:57.752Z,21.43
2022-10-09T03:06:24.676Z,21.44
2022-10-09T03:08:51.011Z,21.43
2022-10-09T03:11:17.585Z,21.44
2022-10-09T03:13:44.143Z,21.45
2022-10-09T03:16:11.261Z,21.45
2022-10-09T03:18:37.606Z,21.47
2022-10-09T03:21:10.595Z,21.48
2022-10-09T03:23:36.902Z,21.49
2022-10-09T03:26:04.572Z,21.49
2022-10-09T03:28:30.911Z,21.48
2022-10-09T03:30:57.310Z,21.49
2022-10-09T03:33:23.665Z,21.50
2022-10-09T03:35:50.000Z,21.49
2022-10-09T03:38:16.331Z,21.48
2022-10-09T03:40:42.779Z,21.49
2022-10-09T03:43:09.092Z,21.49
2022-10-09T03:45:35.412Z,21.49
2022-10-09T03:48:01.719Z,21.49
2022-10-09T03:50:28.052Z,21.51
2022-10-09T03:52:54.357Z,21.50
2022-10-09T03:55:20.697Z,21.50
2022-10-09T03:57:47.010Z,21.50
2022-10-09T04:00:13.594Z,21.51
2022-10-09T04:02:39.969Z,21.50
2022-10-09T04:05:06.585Z,21.49
2022-10-09T04:07:32.926Z,21.49
2022-10-09T04:09:59.258Z,21.49
2022-10-09T04:12:25.615Z,21.51
2022-10-09T04:14:51.967Z,21.51
2022-10-09T04:17:18.286Z,21.51
2022-10-09T04:19:44.662Z,21.52
2022-10-09T04:22:10.980Z,21.52
2022-10-09T04:24:37.310Z,21.54
2022-10-09T04:27:03.626Z,21.53
2022-10-09T04:29:29.960Z,21.54
2022-10-09T04:31:56.324Z,21.54
2022-10-09T04:34:22.678Z,21.55
2022-10-09T04:36:48.987Z,21.54
2022-10-09T04:39:15.313Z,21.55
2022-10-09T04:41:41.654Z,21.54
2022-10-09T04:44:08.001Z,21.55
2022-10-09T04:46:34.309Z,21.54
2022-10-09T04:49:00.671Z,21.54
2022-10-09T04:51:26.977Z,21.57
2022-10-09T04:53:58.417Z,21.56
2022-10-09T04:56:26.893Z,21.45
2022-10-09T04:58:53.201Z,21.42
2022-10-09T05:01:20.752Z,21.55
2022-10-09T05:03:47.091Z,21.56
2022-10-09T05:06:13.549Z,21.57
2022-10-09T05:08:39.949Z,21.57
2022-10-09T05:11:07.292Z,21.58
2022-10-09T05:13:36.607Z,21.58
2022-10-09T05:16:16.052Z,21.59
2022-10-09T05:18:43.102Z,21.58
2022-10-09T05:21:09.417Z,21.59
2022-10-09T05:23:35.757Z,21.59
2022-10-09T05:26:03.489Z,21.59
2022-10-09T05:28:30.058Z,21.60
2022-10-09T05:30:56.431Z,21.58
2022-10-09T05:33:22.749Z,21.60
2022-10-09T05:35:55.873Z,21.60
2022-10-09T05:38:22.638Z,21.61
2022-10-09T05:40:56.721Z,21.62
2022-10-09T05:43:23.715Z,21.62
2022-10-09T05:45:50.101Z,21.60
2022-10-09T05:48:16.462Z,21.61
2022-10-09T05:50:42.789Z,21.61
2022-10-09T05:53:09.106Z,21.62
2022-10-09T05:55:35.429Z,21.62
2022-10-09T05:58:01.733Z,21.63
2022-10-09T06:00:28.057Z,21.61
2022-10-09T06:02:54.958Z,21.63
2022-10-09T06:05:21.643Z,21.64
2022-10-09T06:07:47.954Z,21.64
2022-10-09T06:10:14.281Z,21.63
2022-10-09T06:12:40.590Z,21.64
2022-10-09T06:15:07.053Z,21.62
2022-10-09T06:17:33.426Z,21.62
2022-10-09T06:19:59.746Z,21.62
2022-10-09T06:22:26.110Z,21.61
2022-10-09T06:24:52.447Z,21.62
2022-10-09T06:27:18.749Z,21.62
2022-10-09T06:29:45.064Z,21.62
2022-10-09T06:32:11.375Z,21.61
2022-10-09T06:34:37.677Z,21.63
2022-10-09T06:37:03.981Z,21.63
2022-10-09T06:39:30.289Z,21.64
2022-10-09T06:41:56.599Z,21.64
2022-10-09T06:44:29.797Z,21.64
2022-10-09T06:46:56.135Z,21.63
2022-10-09T06:49:22.452Z,21.63
2022-10-09T06:51:48.768Z,21.64
2022-10-09T06:54:16.174Z,21.64
2022-10-09T06:56:42.674Z,21.64
2022-10-09T06:59:09.640Z,21.65
2022-10-09T07:01:35.989Z,21.69
2022-10-09T07:04:03.485Z,21.67
2022-10-09T07:06:30.425Z,21.68
2022-10-09T07:08:57.802Z,21.69
2022-10-09T07:11:24.899Z,21.57
2022-10-09T07:13:52.588Z,21.41
2022-10-09T07:16:19.504Z,21.27
2022-10-09T07:18:45.857Z,21.26
2022-10-09T07:21:12.171Z,21.01
2022-10-09T07:23:38.485Z,19.37
2022-10-09T07:26:11.825Z,18.38
2022-10-09T07:28:38.177Z,17.80
2022-10-09T07:31:04.713Z,18.01
2022-10-09T07:33:31.097Z,18.09
2022-10-09T07:35:57.700Z,17.56
2022-10-09T07:38:24.525Z,18.78
2022-10-09T07:40:53.879Z,19.70
2022-10-09T07:43:20.235Z,20.28
2022-10-09T07:45:46.648Z,20.20
2022-10-09T07:48:13.021Z,20.19
2022-10-09T07:50:39.398Z,20.46
2022-10-09T07:53:05.723Z,20.64
2022-10-09T07:55:32.044Z,20.75
2022-10-09T07:57:58.501Z,20.82
2022-10-09T08:00:24.854Z,20.87
2022-10-09T08:02:51.632Z,20.93
2022-10-09T08:05:18.276Z,20.95
2022-10-09T08:07:44.582Z,20.99
2022-10-09T08:10:10.943Z,21.03
2022-10-09T08:12:37.259Z,21.03
2022-10-09T08:15:03.625Z,21.06
2022-10-09T08:17:29.942Z,21.08
2022-10-09T08:19:58.025Z,21.08
2022-10-09T08:22:24.388Z,21.10
2022-10-09T08:24:50.710Z,21.11
2022-10-09T08:27:17.118Z,21.13
2022-10-09T08:29:43.440Z,21.16
2022-10-09T08:32:09.762Z,21.18
2022-10-09T08:34:36.197Z,21.19
2022-10-09T08:37:02.527Z,21.20
2022-10-09T08:39:30.989Z,21.22
2022-10-09T08:41:57.656Z,21.24
2022-10-09T08:44:33.651Z,21.25
2022-10-09T08:47:12.669Z,21.13
2022-10-09T08:49:48.455Z,21.16
2022-10-09T08:52:23.375Z,21.22
2022-10-09T08:54:50.074Z,21.19
2022-10-09T08:57:16.485Z,21.22
2022-10-09T08:59:42.929Z,21.26
2022-10-09T09:02:25.672Z,20.93
2022-10-09T09:05:08.896Z,20.86
2022-10-09T09:07:44.899Z,20.78
2022-10-09T09:10:18.178Z,20.58
2022-10-09T09:13:00.640Z,20.35
2022-10-09T09:15:40.045Z,20.55
2022-10-09T09:18:10.526Z,20.95
2022-10-09T09:20:36.779Z,21.14
2022-10-09T09:23:03.095Z,21.20
2022-10-09T09:25:31.145Z,21.21
2022-10-09T09:27:58.712Z,21.23
2022-10-09T09:30:27.301Z,21.23
2022-10-09T09:32:59.403Z,21.24
2022-10-09T09:35:32.667Z,21.26
2022-10-09T09:37:59.011Z,21.23
2022-10-09T09:40:46.752Z,21.26
2022-10-09T09:43:14.929Z,21.27
2022-10-09T09:45:41.271Z,21.28
2022-10-09T09:48:11.043Z,21.28
2022-10-09T09:50:53.136Z,21.31
2022-10-09T09:53:28.734Z,21.29
2022-10-09T09:55:55.049Z,21.29
2022-10-09T09:58:21.375Z,21.32
2022-10-09T10:00:57.801Z,21.33
2022-10-09T10:03:24.254Z,21.32
2022-10-09T10:05:50.560Z,21.34
2022-10-09T10:08:26.838Z,21.33
2022-10-09T10:10:56.663Z,21.36
2022-10-09T10:13:28.614Z,21.37
2022-10-09T10:15:55.577Z,21.40
2022-10-09T10:18:22.393Z,21.42
2022-10-09T10:20:55.827Z,21.48
2022-10-09T10:23:22.079Z,21.47
2022-10-09T10:25:49.367Z,21.48
2022-10-09T10:28:16.791Z,21.49
2022-10-09T10:30:43.137Z,21.39
2022-10-09T10:33:19.625Z,20.97
2022-10-09T10:35:45.967Z,20.96
2022-10-09T10:38:19.680Z,21.14
2022-10-09T10:40:52.952Z,21.25
2022-10-09T10:43:38.011Z,21.29
2022-10-09T10:46:11.268Z,21.32
2022-10-09T10:48:41.396Z,21.34
2022-10-09T10:51:10.480Z,21.34
2022-10-09T10:53:40.748Z,21.37
2022-10-09T10:56:08.393Z,21.37
2022-10-09T10:58:49.832Z,21.39
2022-10-09T11:01:28.637Z,21.39
2022-10-09T11:04:09.937Z,21.39
2022-10-09T11:06:42.133Z,21.41
2022-10-09T11:09:27.328Z,21.41
2022-10-09T11:12:00.157Z,21.42
2022-10-09T11:14:33.378Z,21.43
2022-10-09T11:17:11.996Z,21.43
2022-10-09T11:19:45.737Z,21.44
2022-10-09T11:22:31.513Z,21.44
2022-10-09T11:25:16.672Z,21.44
2022-10-09T11:27:59.084Z,21.45
2022-10-09T11:30:26.654Z,21.46
2022-10-09T11:32:55.721Z,21.46
2022-10-09T11:35:22.798Z,21.47
2022-10-09T11:38:01.668Z,21.46
2022-10-09T11:40:34.890Z,21.47
2022-10-09T11:43:04.415Z,21.48
2022-10-09T11:45:42.474Z,21.48
2022-10-09T11:48:10.251Z,21.47
2022-10-09T11:50:42.786Z,21.47
2022-10-09T11:53:09.653Z,21.48
2022-10-09T11:55:35.974Z,21.49
2022-10-09T11:58:09.474Z,21.51
2022-10-09T12:00:36.126Z,21.51
2022-10-09T12:03:03.357Z,21.52
2022-10-09T12:05:29.598Z,21.53
2022-10-09T12:08:05.195Z,21.53
2022-10-09T12:10:32.587Z,21.53
2022-10-09T12:12:59.665Z,21.53
2022-10-09T12:15:36.792Z,21.55
2022-10-09T12:18:12.224Z,21.59
2022-10-09T12:20:38.537Z,21.57
2022-10-09T12:23:25.588Z,21.59
2022-10-09T12:25:52.841Z,21.60
2022-10-09T12:28:30.020Z,21.61
2022-10-09T12:30:56.907Z,21.64
2022-10-09T12:33:28.349Z,21.67
2022-10-09T12:36:05.152Z,21.64
2022-10-09T12:38:31.882Z,21.62
2022-10-09T12:41:05.468Z,21.62
2022-10-09T12:43:32.370Z,21.62
2022-10-09T12:45:58.831Z,21.60
2022-10-09T12:48:25.958Z,21.62
2022-10-09T12:50:52.327Z,21.61
2022-10-09T12:53:22.778Z,21.64
2022-10-09T12:56:00.352Z,21.65
2022-10-09T12:58:30.665Z,21.62
2022-10-09T13:00:57.837Z,21.65
2022-10-09T13:03:36.603Z,21.70
2022-10-09T13:06:03.105Z,21.70
2022-10-09T13:08:30.195Z,21.69
2022-10-09T13:10:57.187Z,21.66
2022-10-09T13:13:25.145Z,21.69
2022-10-09T13:15:58.043Z,21.71
2022-10-09T13:18:24.376Z,21.70
2022-10-09T13:21:03.082Z,21.72
2022-10-09T13:23:30.404Z,21.70
2022-10-09T13:26:01.122Z,21.74
2022-10-09T13:28:29.622Z,21.65
2022-10-09T13:30:56.073Z,21.44
2022-10-09T13:33:22.426Z,21.40
2022-10-09T13:35:48.747Z,21.43
2022-10-09T13:38:15.729Z,21.45
2022-10-09T13:40:42.471Z,21.44
2022-10-09T13:43:09.399Z,21.32
2022-10-09T13:45:35.715Z,21.48
2022-10-09T13:48:02.048Z,21.61
2022-10-09T13:50:28.429Z,21.67
2022-10-09T13:52:54.738Z,21.66
2022-10-09T13:55:21.411Z,21.67
2022-10-09T13:57:48.099Z,21.69
2022-10-09T14:00:14.757Z,21.70
2022-10-09T14:02:41.081Z,21.71
2022-10-09T14:05:07.406Z,21.68
2022-10-09T14:07:33.720Z,21.67
2022-10-09T14:10:00.064Z,21.71
2022-10-09T14:12:26.379Z,21.67
2022-10-09T14:14:53.024Z,21.69
2022-10-09T14:17:19.334Z,21.70
2022-10-09T14:19:45.647Z,21.71
2022-10-09T14:22:13.288Z,21.71
2022-10-09T14:24:39.655Z,21.69
2022-10-09T14:27:06.029Z,21.69
2022-10-09T14:29:32.348Z,21.71
2022-10-09T14:31:58.663Z,21.70
2022-10-09T14:34:24.987Z,21.71
2022-10-09T14:36:51.384Z,21.72
2022-10-09T14:39:17.767Z,21.72
2022-10-09T14:41:44.138Z,21.72
2022-10-09T14:44:10.962Z,21.72
2022-10-09T14:46:39.096Z,21.70
2022-10-09T14:49:07.856Z,21.72
2022-10-09T14:51:36.944Z,21.69
2022-10-09T14:54:03.646Z,21.69
2022-10-09T14:56:29.950Z,21.70
2022-10-09T14:58:57.822Z,21.71
2022-10-09T15:01:24.391Z,21.70
2022-10-09T15:03:50.825Z,21.71
2022-10-09T15:06:18.253Z,21.70
2022-10-09T15:08:44.578Z,21.70
2022-10-09T15:11:11.523Z,21.71
2022-10-09T15:13:37.894Z,21.71
2022-10-09T15:16:05.843Z,21.70
2022-10-09T15:18:32.226Z,21.69
2022-10-09T15:20:59.689Z,21.70
2022-10-09T15:23:26.313Z,21.70
2022-10-09T15:25:53.127Z,21.72
2022-10-09T15:28:19.698Z,21.70
2022-10-09T15:30:46.519Z,21.70
2022-10-09T15:33:12.913Z,21.69
2022-10-09T15:35:39.235Z,21.70
2022-10-09T15:38:05.846Z,21.69
2022-10-09T15:40:32.207Z,21.68
2022-10-09T15:42:58.526Z,21.70
2022-10-09T15:45:24.887Z,21.69
2022-10-09T15:47:51.742Z,21.69
2022-10-09T15:50:18.097Z,21.66
2022-10-09T15:52:44.453Z,21.68
2022-10-09T15:55:10.814Z,21.68
2022-10-09T15:57:37.121Z,21.69
2022-10-09T16:00:03.634Z,21.66
2022-10-09T16:02:30.576Z,21.66
2022-10-09T16:04:56.894Z,21.69
2022-10-09T16:07:23.238Z,21.66
2022-10-09T16:09:49.554Z,21.67
2022-10-09T16:12:15.863Z,21.65
2022-10-09T16:14:42.583Z,21.66
2022-10-09T16:17:11.295Z,21.65
2022-10-09T16:19:37.939Z,21.64
2022-10-09T16:22:05.706Z,21.64
2022-10-09T16:24:32.329Z,21.65
2022-10-09T16:26:58.646Z,21.67
2022-10-09T16:29:25.344Z,21.66
2022-10-09T16:31:51.667Z,21.65
2022-10-09T16:34:17.987Z,21.65
2022-10-09T16:36:44.288Z,21.63
2022-10-09T16:39:10.597Z,21.65
2022-10-09T16:41:41.701Z,21.64
2022-10-09T16:44:11.251Z,21.63
2022-10-09T16:46:37.589Z,21.64
2022-10-09T16:49:03.933Z,21.66
2022-10-09T16:51:30.954Z,21.66
2022-10-09T16:53:58.381Z,21.59
2022-10-09T16:56:25.704Z,21.60
2022-10-09T16:58:53.861Z,21.61
2022-10-09T17:01:20.219Z,21.63
2022-10-09T17:03:46.638Z,21.64
2022-10-09T17:06:13.912Z,21.65
2022-10-09T17:08:40.239Z,21.66
2022-10-09T17:11:09.911Z,21.67
2022-10-09T17:13:36.278Z,21.69
2022-10-09T17:16:06.173Z,21.70
2022-10-09T17:18:32.516Z,21.70
2022-10-09T17:21:00.703Z,21.74
2022-10-09T17:23:27.029Z,22.10
2022-10-09T17:25:53.723Z,22.11
2022-10-09T17:28:20.172Z,22.15
2022-10-09T17:30:46.535Z,22.16
2022-10-09T17:33:17.543Z,22.13
2022-10-09T17:35:45.889Z,22.15
2022-10-09T17:38:12.208Z,22.23
2022-10-09T17:40:39.003Z,22.13
2022-10-09T17:43:05.870Z,22.04
2022-10-09T17:45:39.149Z,21.98
2022-10-09T17:48:05.693Z,21.91
2022-10-09T17:50:32.153Z,21.94
2022-10-09T17:52:58.475Z,21.99
2022-10-09T17:55:24.779Z,21.97
2022-10-09T17:57:51.491Z,21.96
2022-10-09T18:00:21.651Z,21.29
2022-10-09T18:02:48.421Z,20.85
2022-10-09T18:05:15.111Z,21.04
2022-10-09T18:07:41.430Z,21.53
2022-10-09T18:10:07.791Z,21.74
2022-10-09T18:12:34.149Z,21.84
2022-10-09T18:15:00.508Z,21.90
2022-10-09T18:17:30.109Z,21.94
2022-10-09T18:19:56.455Z,21.95
2022-10-09T18:22:22.772Z,21.95
2022-10-09T18:24:49.111Z,21.97
2022-10-09T18:27:15.442Z,21.96
2022-10-09T18:29:41.771Z,21.98
2022-10-09T18:32:08.100Z,21.99
2022-10-09T18:34:38.912Z,21.99
2022-10-09T18:37:05.893Z,22.00
2022-10-09T18:39:32.217Z,22.00
2022-10-09T18:41:58.644Z,21.97
2022-10-09T18:44:25.013Z,21.94
2022-10-09T18:46:51.851Z,21.93
2022-10-09T18:49:18.670Z,21.99
2022-10-09T18:51:45.007Z,22.00
2022-10-09T18:54:17.127Z,22.02
2022-10-09T18:56:44.231Z,22.00
2022-10-09T18:59:12.102Z,22.01
2022-10-09T19:01:39.160Z,21.98
2022-10-09T19:04:05.762Z,21.98
2022-10-09T19:06:32.091Z,21.99
2022-10-09T19:09:00.675Z,22.02
2022-10-09T19:11:27.682Z,22.04
2022-10-09T19:13:55.042Z,21.99
2022-10-09T19:16:21.674Z,21.98
2022-10-09T19:18:48.063Z,22.02
2022-10-09T19:21:14.511Z,22.04
2022-10-09T19:23:41.165Z,22.08
2022-10-09T19:26:07.494Z,22.09
2022-10-09T19:28:37.726Z,22.10
2022-10-09T19:31:05.199Z,22.13
2022-10-09T19:33:31.518Z,22.12
2022-10-09T19:35:57.873Z,22.14
2022-10-09T19:38:24.182Z,22.14
2022-10-09T19:40:50.503Z,22.13
2022-10-09T19:43:17.023Z,22.14
2022-10-09T19:45:43.379Z,22.15
2022-10-09T19:48:09.711Z,22.15
2022-10-09T19:50:42.296Z,22.17
2022-10-09T19:53:08.646Z,22.16
2022-10-09T19:55:35.037Z,22.16
2022-10-09T19:58:01.414Z,22.15
2022-10-09T20:00:27.850Z,22.16
2022-10-09T20:02:54.161Z,22.15
2022-10-09T20:05:20.550Z,22.14
2022-10-09T20:07:46.873Z,22.14
2022-10-09T20:10:13.192Z,22.14
2022-10-09T20:12:39.743Z,22.14
2022-10-09T20:15:06.295Z,22.12
2022-10-09T20:17:32.613Z,22.11
2022-10-09T20:19:58.938Z,22.11
2022-10-09T20:22:25.265Z,22.10
2022-10-09T20:24:52.174Z,22.09
2022-10-09T20:27:18.489Z,22.09
2022-10-09T20:29:45.034Z,22.08
2022-10-09T20:32:12.212Z,22.07
2022-10-09T20:34:38.540Z,22.06
2022-10-09T20:37:04.860Z,22.06
2022-10-09T20:39:31.187Z,22.04
2022-10-09T20:41:57.493Z,22.04
2022-10-09T20:44:23.798Z,22.04
2022-10-09T20:46:50.145Z,22.02
2022-10-09T20:49:16.505Z,22.03
2022-10-09T20:51:42.859Z,21.99
2022-10-09T20:54:09.174Z,21.99
2022-10-09T20:56:35.486Z,21.99
2022-10-09T20:59:01.799Z,21.98
2022-10-09T21:01:28.669Z,21.96
2022-10-09T21:03:55.450Z,21.94
2022-10-09T21:06:21.776Z,21.92
2022-10-09T21:08:48.105Z,21.95
2022-10-09T21:11:16.681Z,21.95
2022-10-09T21:13:43.169Z,21.94
2022-10-09T21:16:10.153Z,21.94
2022-10-09T21:18:36.462Z,21.90
2022-10-09T21:21:03.550Z,21.89
2022-10-09T21:23:29.863Z,21.92
2022-10-09T21:25:56.261Z,21.92
2022-10-09T21:28:22.658Z,21.92
2022-10-09T21:30:48.976Z,21.86
2022-10-09T21:33:15.423Z,21.87
2022-10-09T21:35:42.101Z,21.86
2022-10-09T21:38:12.599Z,21.88
2022-10-09T21:40:39.218Z,21.85
2022-10-09T21:43:05.549Z,21.88
2022-10-09T21:45:31.854Z,21.87
2022-10-09T21:47:58.178Z,21.83
2022-10-09T21:50:24.502Z,21.85
2022-10-09T21:52:51.049Z,21.83
2022-10-09T21:55:17.781Z,21.83
2022-10-09T21:57:45.272Z,21.82
2022-10-09T22:00:11.810Z,21.83
2022-10-09T22:02:38.141Z,21.81
2022-10-09T22:05:04.518Z,21.80
2022-10-09T22:07:32.762Z,21.79
2022-10-09T22:09:59.095Z,21.79
2022-10-09T22:12:25.417Z,21.80
2022-10-09T22:14:51.753Z,21.80
2022-10-09T22:17:18.077Z,21.79
2022-10-09T22:19:44.472Z,21.79
2022-10-09T22:22:10.822Z,21.77
2022-10-09T22:24:37.177Z,21.77
2022-10-09T22:27:03.530Z,21.77
2022-10-09T22:29:29.844Z,21.78
2022-10-09T22:31:56.165Z,21.78
2022-10-09T22:34:22.480Z,21.74
2022-10-09T22:36:48.826Z,21.74
2022-10-09T22:39:15.137Z,21.74
2022-10-09T22:41:41.497Z,21.74
2022-10-09T22:44:08.195Z,21.72
2022-10-09T22:46:38.019Z,21.73
2022-10-09T22:49:04.559Z,21.72
2022-10-09T22:51:30.878Z,21.73
2022-10-09T22:53:57.354Z,21.71
2022-10-09T22:56:24.331Z,21.70
2022-10-09T22:58:51.647Z,21.71
2022-10-09T23:01:19.716Z,21.71
2022-10-09T23:03:46.070Z,21.70
2022-10-09T23:06:13.950Z,21.71
2022-10-09T23:08:40.899Z,21.70
2022-10-09T23:11:07.247Z,21.69
2022-10-09T23:13:33.673Z,21.67
2022-10-09T23:16:00.421Z,21.68
2022-10-09T23:18:26.907Z,21.66
2022-10-09T23:20:53.236Z,21.68
2022-10-09T23:23:19.541Z,21.67
2022-10-09T23:25:45.954Z,21.66
2022-10-09T23:28:12.329Z,21.67
2022-10-09T23:30:38.681Z,21.67
2022-10-09T23:33:05.020Z,21.66
2022-10-09T23:35:31.382Z,21.67
2022-10-09T23:37:57.700Z,21.65
2022-10-09T23:40:24.016Z,21.62
2022-10-09T23:42:50.677Z,21.63
2022-10-09T23:45:17.989Z,21.63
2022-10-09T23:47:44.302Z,21.64
2022-10-09T23:50:10.627Z,21.61
2022-10-09T23:52:36.938Z,21.63
2022-10-09T23:55:03.250Z,21.64
2022-10-09T23:57:29.569Z,21.63
2022-10-09T23:59:55.906Z,21.64
